Time;durP1;ratioP1;P1;durP2;ratioP2;P2;SDS_P1;SDS_P2;PMS_P1;PMS_P2;Temp;Humidity;BMP_temperature;BMP_pressure;BME280_temperature;BME280_humidity;BME280_pressure;Samples;Min_cycle;Max_cycle;Signal;HPM_P1;HPM_P2
2023/07/31 00:00:08;;;;;;;1.23;1.10;;;;;;;24.96;57.94;97539.31;5062489;28;20232;-27
2023/07/31 00:02:35;;;;;;;1.00;1.00;;;;;;;24.96;58.57;97533.31;5059818;28;20227;-27
2023/07/31 00:05:02;;;;;;;1.00;1.00;;;;;;;24.95;58.08;97537.59;5055584;28;20213;-27
2023/07/31 00:07:28;;;;;;;1.00;1.00;;;;;;;24.95;58.32;97527.31;5060818;28;20260;-27
2023/07/31 00:09:56;;;;;;;1.80;1.10;;;;;;;24.95;58.59;97529.00;5065172;28;20548;-27
2023/07/31 00:12:23;;;;;;;0.97;0.97;;;;;;;24.95;58.29;97531.56;5054886;28;20607;-27
2023/07/31 00:14:49;;;;;;;0.90;0.90;;;;;;;24.91;58.18;97528.13;5063302;28;20618;-27
2023/07/31 00:17:16;;;;;;;1.03;0.93;;;;;;;24.96;58.13;97536.75;5057692;28;20262;-28
2023/07/31 00:19:43;;;;;;;1.40;1.03;;;;;;;24.96;58.17;97538.47;5063075;28;20236;-27
2023/07/31 00:22:10;;;;;;;1.20;1.10;;;;;;;24.97;58.14;97535.03;5053177;28;20224;-28
2023/07/31 00:24:36;;;;;;;1.00;1.00;;;;;;;24.91;58.14;97522.09;5066498;28;20303;-27
2023/07/31 00:27:03;;;;;;;1.87;1.13;;;;;;;24.97;58.35;97524.75;5061687;28;20670;-27
2023/07/31 00:29:30;;;;;;;1.00;1.00;;;;;;;24.96;58.10;97529.03;5055531;28;20250;-27
2023/07/31 00:31:57;;;;;;;1.00;1.00;;;;;;;24.97;58.61;97527.34;5061173;28;20220;-27
2023/07/31 00:34:23;;;;;;;1.10;1.00;;;;;;;24.97;58.23;97528.22;5053563;28;20229;-28
2023/07/31 00:36:50;;;;;;;1.20;1.10;;;;;;;24.93;58.05;97520.41;5061255;28;20200;-27
2023/07/31 00:39:16;;;;;;;1.30;1.17;;;;;;;24.96;58.28;97530.75;5065299;28;20211;-27
2023/07/31 00:41:43;;;;;;;1.00;1.00;;;;;;;24.96;58.35;97518.75;5064134;28;20252;-27
2023/07/31 00:44:09;;;;;;;1.02;1.00;;;;;;;24.96;58.35;97525.63;5059914;28;20207;-27
2023/07/31 00:46:36;;;;;;;1.00;1.00;;;;;;;24.97;58.34;97520.50;5056187;28;20241;-27
2023/07/31 00:49:03;;;;;;;1.07;1.07;;;;;;;24.97;58.50;97519.63;5058361;28;20200;-27
2023/07/31 00:51:30;;;;;;;1.20;1.10;;;;;;;24.93;58.61;97513.56;5054043;28;20698;-27
2023/07/31 00:53:56;;;;;;;1.23;1.10;;;;;;;24.96;58.39;97521.31;5055982;28;20265;-27
2023/07/31 00:56:23;;;;;;;1.20;1.10;;;;;;;24.95;58.54;97511.00;5053917;28;20208;-28
2023/07/31 00:58:50;;;;;;;1.37;1.13;;;;;;;24.96;58.58;97515.31;5067817;28;20257;-27
2023/07/31 01:01:17;;;;;;;1.67;1.10;;;;;;;24.96;58.55;97515.31;5064176;28;20203;-27
2023/07/31 01:03:44;;;;;;;1.30;1.20;;;;;;;24.96;58.07;97510.19;5063811;28;20202;-27
2023/07/31 01:06:24;;;;;;;0.90;0.90;;;;;;;24.97;58.22;97509.34;5060546;28;20227;-27
2023/07/31 01:09:04;;;;;;;1.20;1.10;;;;;;;24.96;58.49;97512.75;5064982;28;20683;-27
2023/07/31 01:11:33;;;;;;;1.03;1.03;;;;;;;24.93;58.37;97512.72;5064659;28;20207;-27
2023/07/31 01:14:00;;;;;;;1.30;1.20;;;;;;;24.96;58.24;97520.47;5051950;28;20200;-27
2023/07/31 01:16:26;;;;;;;1.00;1.00;;;;;;;24.95;58.36;97514.44;5061929;28;20273;-33
2023/07/31 01:18:53;;;;;;;1.00;1.00;;;;;;;24.96;58.23;97518.75;5068379;28;20688;-27
2023/07/31 01:21:32;;;;;;;1.07;0.97;;;;;;;24.95;58.19;97517.03;5066328;28;20202;-27
2023/07/31 01:24:35;;;;;;;1.30;1.20;;;;;;;24.96;58.38;97515.31;5049564;28;20619;-27
2023/07/31 01:27:06;;;;;;;1.13;1.03;;;;;;;24.97;58.26;97509.34;5065115;28;20196;-27
2023/07/31 01:29:45;;;;;;;1.13;1.03;;;;;;;24.93;58.32;97503.25;5058437;28;20254;-27
2023/07/31 01:32:12;;;;;;;1.20;1.10;;;;;;;24.95;58.17;97495.56;5046804;28;20224;-27
2023/07/31 01:34:38;;;;;;;0.87;0.87;;;;;;;24.95;58.60;97495.56;5061078;28;20197;-27
2023/07/31 01:37:05;;;;;;;1.30;1.20;;;;;;;24.96;58.54;97495.59;5067621;28;20255;-27
2023/07/31 01:39:31;;;;;;;1.00;1.00;;;;;;;24.96;58.24;97497.31;5069521;28;20660;-27
2023/07/31 01:41:58;;;;;;;1.20;1.10;;;;;;;24.96;58.41;97495.59;5063244;28;20216;-27
2023/07/31 01:44:24;;;;;;;1.20;1.10;;;;;;;24.96;58.76;97500.75;5065894;28;20280;-27
2023/07/31 01:46:51;;;;;;;1.00;1.00;;;;;;;24.95;58.56;97495.56;5063830;28;20655;-27
2023/07/31 01:49:18;;;;;;;1.10;1.00;;;;;;;24.95;58.62;97496.44;5068725;28;20682;-27
2023/07/31 01:51:44;;;;;;;1.00;1.00;;;;;;;24.95;58.41;97493.88;5061680;28;20298;-29
2023/07/31 01:54:11;;;;;;;1.00;1.00;;;;;;;24.96;58.34;97498.16;5061773;28;20238;-27
2023/07/31 01:56:37;;;;;;;1.13;1.10;;;;;;;24.96;58.26;97498.16;5068574;28;20192;-27
2023/07/31 01:59:04;;;;;;;1.40;1.10;;;;;;;24.95;58.15;97490.44;5062204;28;20196;-27
2023/07/31 02:01:31;;;;;;;0.90;0.90;;;;;;;24.95;58.34;97496.44;5063532;28;20650;-27
2023/07/31 02:03:57;;;;;;;1.30;1.20;;;;;;;24.94;58.25;97493.84;5070331;28;20204;-27
2023/07/31 02:06:24;;;;;;;1.30;1.20;;;;;;;24.94;58.52;97493.84;5062612;28;20303;-27
2023/07/31 02:08:51;;;;;;;1.17;1.17;;;;;;;24.93;58.33;97495.56;5066365;28;20197;-27
2023/07/31 02:11:17;;;;;;;1.00;1.00;;;;;;;24.92;58.53;97486.13;5063913;28;20239;-27
2023/07/31 02:13:44;;;;;;;1.13;1.00;;;;;;;24.93;58.39;97484.44;5059606;28;20611;-27
2023/07/31 02:19:57;;;;;;;1.30;1.20;;;;;;;24.91;58.35;97489.53;5067993;28;20214;-27
2023/07/31 02:22:24;;;;;;;1.23;1.13;;;;;;;24.92;58.60;97474.97;5056511;28;20248;-27
2023/07/31 02:24:50;;;;;;;1.00;1.00;;;;;;;24.91;58.59;97468.09;5071299;28;20254;-27
2023/07/31 02:27:17;;;;;;;1.37;1.27;;;;;;;24.90;58.17;97461.25;5059493;28;20205;-27
2023/07/31 02:29:44;;;;;;;0.83;0.83;;;;;;;24.90;58.27;97467.22;5071951;28;20713;-27
2023/07/31 02:32:11;;;;;;;1.10;1.00;;;;;;;24.85;58.52;97447.44;5058421;28;20225;-27
2023/07/31 02:34:38;;;;;;;1.23;1.13;;;;;;;24.89;58.22;97460.38;5070729;28;20209;-27
2023/07/31 02:37:05;;;;;;;1.00;1.00;;;;;;;24.89;58.42;97459.50;5068124;28;20205;-27
2023/07/31 02:39:31;;;;;;;1.70;1.10;;;;;;;24.88;58.48;97448.38;5070844;28;20480;-27
2023/07/31 02:41:58;;;;;;;1.17;1.10;;;;;;;24.88;58.45;97456.06;5069649;28;20272;-27
2023/07/31 02:44:25;;;;;;;1.00;1.00;;;;;;;24.89;58.63;97460.38;5073125;28;20259;-27
2023/07/31 02:46:51;;;;;;;1.00;1.00;;;;;;;24.89;58.57;97457.78;5063777;28;20216;-28
2023/07/31 02:49:18;;;;;;;1.00;1.00;;;;;;;24.89;58.58;97459.50;5065959;28;20212;-32
2023/07/31 02:51:44;;;;;;;1.00;1.00;;;;;;;24.88;58.91;97456.06;5072350;28;20352;-31
2023/07/31 02:54:11;;;;;;;1.17;1.10;;;;;;;24.89;58.63;97464.63;5065599;28;20722;-27
2023/07/31 02:56:37;;;;;;;0.80;0.80;;;;;;;24.89;58.58;97470.66;5062645;28;20280;-27
2023/07/31 02:59:05;;;;;;;1.17;1.07;;;;;;;24.89;59.00;97459.50;5061093;28;20587;-27
2023/07/31 03:01:31;;;;;;;1.17;1.10;;;;;;;24.89;58.80;97457.78;5067917;28;20668;-27
2023/07/31 03:03:58;;;;;;;2.57;1.20;;;;;;;24.90;58.45;97454.38;5069241;28;20204;-27
2023/07/31 03:06:26;;;;;;;1.63;1.20;;;;;;;24.90;58.88;97451.81;5058991;28;20244;-27
2023/07/31 03:08:52;;;;;;;1.27;1.03;;;;;;;24.90;58.87;97454.38;5066339;28;20227;-27
2023/07/31 03:11:19;;;;;;;1.03;1.03;;;;;;;24.86;58.93;97447.47;5072823;28;20714;-27
2023/07/31 03:13:45;;;;;;;1.00;1.00;;;;;;;24.91;58.80;97462.97;5073980;28;20196;-31
2023/07/31 03:16:12;;;;;;;1.10;1.10;;;;;;;24.90;58.76;97456.94;5073517;28;20227;-27
2023/07/31 03:18:38;;;;;;;1.23;1.13;;;;;;;24.91;58.56;97450.09;5065700;28;20276;-29
2023/07/31 03:21:05;;;;;;;1.33;1.20;;;;;;;24.92;59.06;97456.97;5068806;28;20247;-27
2023/07/31 03:23:32;;;;;;;1.00;1.00;;;;;;;24.92;58.92;97454.38;5064992;28;20227;-27
2023/07/31 03:25:59;;;;;;;1.30;1.20;;;;;;;24.90;58.70;97445.81;5071892;28;20224;-27
2023/07/31 03:28:26;;;;;;;0.90;0.90;;;;;;;24.89;58.59;97444.06;5070743;28;20284;-27
2023/07/31 03:30:53;;;;;;;0.93;0.93;;;;;;;24.89;58.93;97450.09;5064402;28;20228;-29
2023/07/31 03:33:19;;;;;;;0.90;0.90;;;;;;;24.91;59.01;97450.09;5059528;28;20303;-27
2023/07/31 03:35:46;;;;;;;1.20;1.10;;;;;;;24.91;58.54;97458.69;5066840;28;20203;-28
2023/07/31 03:38:13;;;;;;;0.87;0.87;;;;;;;24.93;58.67;97463.84;5069457;28;20250;-28
2023/07/31 03:40:39;;;;;;;0.90;0.90;;;;;;;24.92;58.61;97465.56;5070706;28;20204;-27
2023/07/31 03:43:06;;;;;;;1.20;1.10;;;;;;;24.93;58.91;97469.00;5070060;28;20647;-27
2023/07/31 03:45:32;;;;;;;0.90;0.90;;;;;;;24.92;59.01;97462.97;5068796;28;20723;-27
2023/07/31 03:47:59;;;;;;;1.17;1.10;;;;;;;24.89;58.79;97455.22;5069587;28;20253;-28
2023/07/31 03:50:25;;;;;;;1.00;1.00;;;;;;;24.93;58.97;97463.84;5069291;28;20723;-27
2023/07/31 03:52:52;;;;;;;1.10;1.10;;;;;;;24.92;59.08;97465.56;5071068;28;20746;-27
2023/07/31 03:55:19;;;;;;;1.03;1.00;;;;;;;24.93;59.14;97463.84;5066047;28;20266;-27
2023/07/31 03:57:45;;;;;;;0.90;0.90;;;;;;;24.93;59.04;97457.00;5064053;28;20231;-30
2023/07/31 04:00:12;;;;;;;1.03;1.00;;;;;;;24.91;59.02;97456.13;5068092;28;20201;-28
2023/07/31 04:02:38;;;;;;;1.20;1.10;;;;;;;24.93;58.73;97464.69;5060637;28;20278;-27
2023/07/31 04:05:06;;;;;;;1.20;1.10;;;;;;;24.91;59.18;97456.13;5054585;28;20642;-36
2023/07/31 04:07:32;;;;;;;1.30;1.20;;;;;;;24.94;59.26;97455.28;5062255;28;20615;-27
2023/07/31 04:09:59;;;;;;;1.00;1.00;;;;;;;24.94;59.14;97452.72;5064887;28;20201;-27
2023/07/31 04:12:26;;;;;;;1.00;1.00;;;;;;;24.95;59.23;97457.00;5057654;28;20722;-27
2023/07/31 04:14:52;;;;;;;1.00;1.00;;;;;;;24.93;59.16;97451.84;5065964;28;20203;-28
2023/07/31 04:17:19;;;;;;;1.00;1.00;;;;;;;24.95;59.20;97459.59;5061955;28;20235;-27
2023/07/31 04:19:45;;;;;;;0.90;0.90;;;;;;;24.95;59.13;97454.44;5069417;28;20281;-27
2023/07/31 04:22:12;;;;;;;0.90;0.90;;;;;;;24.93;58.83;97451.84;5071123;28;20231;-27
2023/07/31 04:24:39;;;;;;;1.00;1.00;;;;;;;24.93;58.83;97446.69;5069583;28;20633;-29
2023/07/31 04:27:05;;;;;;;1.43;1.10;;;;;;;24.93;59.08;97451.84;5069998;28;20248;-27
2023/07/31 04:29:32;;;;;;;1.13;1.03;;;;;;;24.94;59.34;97452.72;5069114;28;20650;-27
2023/07/31 04:31:58;;;;;;;1.00;1.00;;;;;;;24.93;59.06;97451.00;5069966;28;20228;-27
2023/07/31 04:34:25;;;;;;;1.10;1.00;;;;;;;24.95;58.88;97452.75;5066379;28;20200;-27
2023/07/31 04:36:51;;;;;;;0.93;0.93;;;;;;;24.92;59.01;97441.53;5069559;28;20640;-27
2023/07/31 04:39:18;;;;;;;1.20;1.10;;;;;;;24.96;58.95;97451.03;5064148;28;20197;-27
2023/07/31 04:41:45;;;;;;;1.10;1.00;;;;;;;24.95;58.80;97447.59;5065708;28;20232;-27
2023/07/31 04:44:11;;;;;;;1.17;1.07;;;;;;;24.96;58.78;97451.88;5066907;28;20367;-27
2023/07/31 04:46:38;;;;;;;1.10;1.10;;;;;;;24.96;59.33;97435.63;5057245;28;20224;-27
2023/07/31 04:49:05;;;;;;;1.00;1.00;;;;;;;24.97;58.89;97434.75;5071468;28;20196;-27
2023/07/31 04:51:31;;;;;;;1.10;1.00;;;;;;;24.96;59.09;97435.63;5061454;28;20201;-27
2023/07/31 04:53:58;;;;;;;0.90;0.90;;;;;;;24.96;58.84;97440.75;5070842;28;20746;-27
2023/07/31 04:56:25;;;;;;;1.20;1.10;;;;;;;24.96;58.84;97439.03;5064504;28;20200;-27
2023/07/31 04:58:51;;;;;;;1.07;1.00;;;;;;;24.98;58.78;97436.47;5060296;28;20728;-27
2023/07/31 05:01:19;;;;;;;1.07;1.07;;;;;;;24.97;59.07;97438.22;5067244;28;20578;-27
2023/07/31 05:03:46;;;;;;;1.00;1.00;;;;;;;24.97;58.89;97432.19;5205236;22;20699;-29
2023/07/31 05:06:15;;;;;;;1.37;1.23;;;;;;;24.97;58.49;97438.22;5048949;28;20217;-27
2023/07/31 05:08:41;;;;;;;1.10;1.00;;;;;;;24.96;58.79;97446.75;5044383;28;20201;-29
2023/07/31 05:11:08;;;;;;;1.30;1.20;;;;;;;24.98;58.93;97451.91;5049696;28;20725;-30
2023/07/31 05:13:34;;;;;;;1.40;1.30;;;;;;;24.98;58.96;97455.34;5039128;28;20221;-39
2023/07/31 05:16:01;;;;;;;1.30;1.20;;;;;;;24.98;59.08;97452.78;5020166;28;20285;-32
2023/07/31 05:18:29;;;;;;;1.40;1.30;;;;;;;24.99;58.77;97453.66;5034587;28;20205;-30
2023/07/31 05:20:55;;;;;;;1.33;1.20;;;;;;;24.97;58.99;97450.19;5030868;28;20625;-29
2023/07/31 05:23:22;;;;;;;1.10;1.10;;;;;;;25.00;58.64;97457.94;5023563;28;20257;-29
2023/07/31 05:25:48;;;;;;;1.30;1.20;;;;;;;24.98;58.86;97452.78;5037148;28;20275;-35
2023/07/31 05:28:15;;;;;;;1.40;1.30;;;;;;;24.98;58.73;97442.50;5031619;28;20263;-38
2023/07/31 05:30:42;;;;;;;1.40;1.30;;;;;;;24.98;58.79;97442.50;5044574;28;20246;-31
2023/07/31 05:33:08;;;;;;;3.43;1.53;;;;;;;25.00;58.42;97448.53;5028145;28;20260;-31
2023/07/31 05:35:38;;;;;;;2.60;1.33;;;;;;;25.00;58.21;97451.13;5031795;28;20208;-34
2023/07/31 05:38:05;;;;;;;1.30;1.20;;;;;;;24.99;58.21;97441.66;5039220;28;20200;-35
2023/07/31 05:40:33;;;;;;;1.40;1.30;;;;;;;24.99;58.35;97438.22;5037134;28;20236;-32
2023/07/31 05:42:59;;;;;;;3.33;1.53;;;;;;;24.99;58.38;97433.09;5040613;28;20228;-40
2023/07/31 05:45:26;;;;;;;1.50;1.40;;;;;;;24.99;58.35;97435.66;5032537;28;20201;-36
2023/07/31 05:47:53;;;;;;;1.50;1.40;;;;;;;25.00;58.55;97439.94;5038554;28;20251;-34
2023/07/31 05:50:19;;;;;;;2.70;1.50;;;;;;;24.99;58.68;97436.50;5037151;28;20258;-34
2023/07/31 05:52:46;;;;;;;1.50;1.40;;;;;;;24.99;58.47;97436.50;5036126;28;20309;-39
2023/07/31 05:55:12;;;;;;;1.40;1.30;;;;;;;25.00;58.20;97440.81;5041605;28;20229;-32
2023/07/31 05:57:39;;;;;;;1.70;1.50;;;;;;;24.99;58.29;97451.09;5041264;28;20633;-32
2023/07/31 06:00:06;;;;;;;2.40;1.50;;;;;;;25.00;58.60;97437.38;5029456;28;20293;-31
2023/07/31 06:02:36;;;;;;;1.70;1.60;;;;;;;25.00;58.46;97435.69;5044520;28;20719;-34
2023/07/31 06:05:05;;;;;;;1.97;1.50;;;;;;;25.00;58.15;97434.81;5038736;28;20233;-33
2023/07/31 06:07:32;;;;;;;1.60;1.50;;;;;;;24.99;58.63;97436.50;5035896;28;20252;-31
2023/07/31 06:10:03;;;;;;;1.50;1.40;;;;;;;25.00;58.19;97434.81;5030934;28;20292;-42
2023/07/31 06:12:29;;;;;;;2.67;1.47;;;;;;;25.00;58.39;97435.69;5031770;28;20237;-29
2023/07/31 06:14:56;;;;;;;2.10;1.60;;;;;;;25.00;58.30;97435.69;5034720;28;20205;-29
2023/07/31 06:17:23;;;;;;;2.47;1.83;;;;;;;25.00;58.47;97437.38;5035767;28;20200;-29
2023/07/31 06:19:50;;;;;;;5.90;1.80;;;;;;;25.00;58.39;97427.97;5038287;28;20201;-38
2023/07/31 06:22:16;;;;;;;2.20;1.60;;;;;;;25.00;58.28;97433.13;5033443;28;20201;-35
2023/07/31 06:24:43;;;;;;;2.57;1.77;;;;;;;24.95;58.14;97419.31;5036425;28;20202;-29
2023/07/31 06:27:09;;;;;;;5.40;2.03;;;;;;;25.01;56.86;97423.66;5030805;28;20291;-29
2023/07/31 06:29:36;;;;;;;3.20;2.27;;;;;;;25.01;57.01;97421.09;5032896;28;20201;-28
2023/07/31 06:32:03;;;;;;;3.63;1.97;;;;;;;25.00;56.86;97421.94;5028751;28;20585;-30
2023/07/31 06:34:30;;;;;;;2.93;2.10;;;;;;;25.01;57.55;97429.69;5031441;28;20676;-34
2023/07/31 06:36:56;;;;;;;2.33;1.80;;;;;;;25.00;57.24;97427.09;5039836;28;20259;-31
2023/07/31 06:39:23;;;;;;;3.87;1.90;;;;;;;25.01;57.71;97427.13;5031390;28;20209;-30
2023/07/31 06:41:50;;;;;;;2.43;1.90;;;;;;;25.01;57.45;97429.69;5031081;28;20214;-34
2023/07/31 06:44:17;;;;;;;2.63;1.90;;;;;;;25.02;57.58;97421.13;5037213;28;20597;-37
2023/07/31 06:46:43;;;;;;;3.50;2.00;;;;;;;25.02;57.52;97426.25;5036739;28;20221;-30
2023/07/31 06:49:10;;;;;;;2.63;1.87;;;;;;;25.02;57.64;97428.84;5033586;28;20208;-34
2023/07/31 06:51:38;;;;;;;2.20;1.90;;;;;;;25.03;57.55;97422.00;5030822;28;20213;-39
2023/07/31 06:54:04;;;;;;;2.83;1.90;;;;;;;25.03;57.95;97427.13;5034045;28;20221;-38
2023/07/31 06:56:31;;;;;;;3.63;2.20;;;;;;;25.02;58.03;97407.41;5028950;28;20289;-34
2023/07/31 06:58:57;;;;;;;4.63;1.90;;;;;;;25.03;57.79;97414.28;5030285;28;20750;-31
2023/07/31 07:01:24;;;;;;;2.90;1.90;;;;;;;25.03;57.96;97420.31;5030203;28;20637;-31
2023/07/31 07:03:51;;;;;;;3.97;1.97;;;;;;;25.03;57.71;97410.00;5034308;28;20237;-30
2023/07/31 07:06:17;;;;;;;2.43;2.00;;;;;;;25.05;57.64;97412.59;5033161;28;20249;-35
2023/07/31 07:08:44;;;;;;;2.23;1.90;;;;;;;25.06;57.95;97424.59;5033158;28;20213;-31
2023/07/31 07:11:11;;;;;;;2.20;2.00;;;;;;;25.06;57.90;97425.47;5033830;28;20680;-30
2023/07/31 07:13:37;;;;;;;2.30;2.03;;;;;;;25.06;58.02;97422.91;5031937;28;20712;-36
2023/07/31 07:16:05;;;;;;;3.97;2.13;;;;;;;25.07;57.93;97421.19;5036377;28;20205;-31
2023/07/31 07:18:31;;;;;;;2.13;1.93;;;;;;;25.07;57.72;97418.63;5033023;28;20667;-36
2023/07/31 07:20:58;;;;;;;2.27;2.00;;;;;;;25.07;58.04;97416.03;5033132;28;20205;-32
2023/07/31 07:23:25;;;;;;;2.17;1.67;;;;;;;25.07;58.17;97408.31;5034939;28;20320;-30
2023/07/31 07:25:51;;;;;;;3.17;2.00;;;;;;;25.08;58.02;97403.19;5032628;28;20205;-30
2023/07/31 07:28:18;;;;;;;2.43;1.70;;;;;;;25.04;58.16;97403.16;5034187;28;20198;-44
2023/07/31 07:30:45;;;;;;;3.07;1.80;;;;;;;25.08;58.06;97407.50;5035436;28;20623;-31
2023/07/31 07:33:12;;;;;;;2.40;1.77;;;;;;;25.09;58.26;97401.50;5036179;28;20224;-31
2023/07/31 07:35:38;;;;;;;1.93;1.77;;;;;;;25.09;58.13;97402.38;5038611;28;20213;-33
2023/07/31 07:38:05;;;;;;;1.70;1.60;;;;;;;25.09;58.00;97402.38;5031891;28;20661;-30
2023/07/31 07:40:32;;;;;;;2.23;1.80;;;;;;;25.09;58.25;97398.94;5034680;28;20203;-30
2023/07/31 07:43:00;;;;;;;2.40;1.80;;;;;;;25.08;58.20;97403.19;5030292;28;20594;-29
2023/07/31 07:45:26;;;;;;;2.27;1.90;;;;;;;25.06;58.00;97389.47;5037833;28;20260;-32
2023/07/31 07:47:53;;;;;;;1.80;1.67;;;;;;;25.06;57.90;97392.06;5034661;28;20584;-31
2023/07/31 07:50:20;;;;;;;2.87;1.90;;;;;;;25.08;57.78;97398.06;5031247;28;20200;-30
2023/07/31 07:52:46;;;;;;;2.00;1.60;;;;;;;25.08;58.09;97400.63;5035484;28;20986;-29
2023/07/31 07:55:13;;;;;;;1.83;1.67;;;;;;;25.09;57.96;97394.66;5021493;28;20210;-38
2023/07/31 07:57:39;;;;;;;2.03;1.83;;;;;;;25.07;58.29;97401.47;5035131;28;20304;-32
2023/07/31 08:00:07;;;;;;;1.90;1.80;;;;;;;25.07;58.13;97398.91;5040281;28;20262;-31
2023/07/31 08:02:33;;;;;;;2.67;1.63;;;;;;;25.07;58.26;97400.59;5039977;28;20225;-33
2023/07/31 08:05:00;;;;;;;2.57;1.77;;;;;;;25.07;58.02;97398.03;5045743;28;20311;-32
2023/07/31 08:07:26;;;;;;;2.50;1.83;;;;;;;25.06;57.96;97402.34;5039279;28;20213;-31
2023/07/31 08:09:53;;;;;;;2.23;1.70;;;;;;;25.06;58.40;97401.47;5042344;28;20255;-30
2023/07/31 08:12:20;;;;;;;1.83;1.60;;;;;;;25.06;57.87;97398.91;5040410;28;20227;-38
2023/07/31 08:14:46;;;;;;;1.90;1.53;;;;;;;25.05;58.25;97400.59;5040614;28;20236;-31
2023/07/31 08:17:13;;;;;;;1.77;1.67;;;;;;;25.05;57.95;97402.31;5042663;28;20216;-38
2023/07/31 08:19:40;;;;;;;2.10;1.60;;;;;;;25.04;58.47;97395.44;5040453;28;20288;-32
2023/07/31 08:22:06;;;;;;;1.80;1.63;;;;;;;25.03;58.26;97402.31;5042134;28;20262;-42
2023/07/31 08:24:33;;;;;;;2.43;1.90;;;;;;;25.02;58.51;97394.56;5041962;28;20292;-30
2023/07/31 08:26:59;;;;;;;2.30;1.73;;;;;;;25.00;58.03;97403.94;5031763;28;20625;-30
2023/07/31 08:29:26;;;;;;;2.00;1.80;;;;;;;25.03;58.35;97410.00;5038778;28;20208;-33
2023/07/31 08:31:52;;;;;;;1.93;1.80;;;;;;;25.03;58.18;97404.88;5041422;28;20197;-35
2023/07/31 08:34:19;;;;;;;1.73;1.50;;;;;;;25.02;58.35;97408.25;5037453;28;20692;-37
2023/07/31 08:36:45;;;;;;;2.10;1.83;;;;;;;25.02;58.06;97399.72;5031223;28;20202;-37
2023/07/31 08:39:12;;;;;;;3.87;1.47;;;;;;;25.02;58.10;97402.28;5031310;28;20208;-30
2023/07/31 08:41:39;;;;;;;2.13;1.70;;;;;;;25.01;58.52;97401.41;5034578;28;20260;-39
2023/07/31 08:44:07;;;;;;;3.43;1.60;;;;;;;25.02;58.45;97399.72;5033731;28;20283;-31
2023/07/31 08:46:33;;;;;;;1.67;1.57;;;;;;;25.00;58.06;97388.53;5015190;28;20304;-33
2023/07/31 08:49:00;;;;;;;2.37;1.80;;;;;;;24.97;58.02;97388.47;5000210;28;20623;-30
2023/07/31 08:51:27;;;;;;;1.60;1.50;;;;;;;25.01;58.61;97397.97;4995470;28;20210;-32
2023/07/31 08:53:53;;;;;;;1.70;1.60;;;;;;;25.00;58.34;97391.97;5033938;28;20248;-35
2023/07/31 08:56:20;;;;;;;2.20;1.80;;;;;;;25.01;58.04;97382.53;5037633;28;20209;-31
2023/07/31 08:58:47;;;;;;;1.60;1.50;;;;;;;25.01;58.14;97388.53;5024212;28;20271;-31
2023/07/31 09:01:13;;;;;;;2.10;1.77;;;;;;;24.99;58.36;97386.81;5017525;28;20209;-35
2023/07/31 09:03:40;;;;;;;1.90;1.80;;;;;;;25.01;58.27;97395.38;5005238;28;20229;-35
2023/07/31 09:06:07;;;;;;;1.97;1.80;;;;;;;25.00;58.58;97389.41;5023108;28;20206;-32
2023/07/31 09:08:33;;;;;;;2.23;2.03;;;;;;;25.00;58.53;97391.97;5034351;28;20590;-30
2023/07/31 09:11:04;;;;;;;1.70;1.60;;;;;;;25.00;58.48;97384.25;5021951;28;20278;-34
2023/07/31 09:13:31;;;;;;;1.70;1.60;;;;;;;25.01;58.54;97385.09;5037470;28;20294;-34
2023/07/31 09:15:58;;;;;;;2.43;1.70;;;;;;;25.00;58.29;97386.84;5032603;28;20656;-29
2023/07/31 09:18:25;;;;;;;1.50;1.40;;;;;;;24.99;55.61;97374.78;5036291;28;20667;-34
2023/07/31 09:21:20;;;;;;;2.40;1.70;;;;;;;24.98;56.71;97370.50;5037979;28;20288;-37
2023/07/31 09:23:54;;;;;;;2.00;1.70;;;;;;;24.98;57.20;97373.06;5018544;28;20662;-37
2023/07/31 09:26:30;;;;;;;3.37;1.87;;;;;;;24.97;57.16;97365.34;5031085;28;20209;-31
2023/07/31 09:28:58;;;;;;;4.13;2.13;;;;;;;24.98;57.43;97367.06;5029711;28;20205;-30
2023/07/31 09:31:41;;;;;;;1.90;1.70;;;;;;;24.97;57.65;97373.06;5029349;28;20202;-30
2023/07/31 09:34:08;;;;;;;2.80;1.73;;;;;;;24.98;57.69;97361.91;5022366;28;20236;-33
2023/07/31 09:36:44;;;;;;;3.27;1.80;;;;;;;24.99;57.54;97348.25;5031048;28;20555;-29
2023/07/31 09:39:11;;;;;;;1.83;1.73;;;;;;;24.99;57.64;97341.38;5036139;28;20688;-30
2023/07/31 09:41:43;;;;;;;2.83;1.70;;;;;;;25.00;57.41;97339.69;5034158;28;20288;-33
2023/07/31 09:44:10;;;;;;;2.63;1.83;;;;;;;25.00;57.65;97335.41;5030296;28;20222;-38
2023/07/31 09:46:37;;;;;;;2.00;1.80;;;;;;;25.00;57.48;97325.13;5031022;28;20252;-32
2023/07/31 09:49:09;;;;;;;2.37;1.80;;;;;;;25.02;57.64;97332.84;5034815;28;20204;-31
2023/07/31 09:51:38;;;;;;;1.87;1.77;;;;;;;25.01;57.91;97320.81;5025874;28;20216;-30
2023/07/31 09:54:12;;;;;;;1.60;1.50;;;;;;;24.67;57.79;97259.56;5027701;28;20225;-31
2023/07/31 09:56:46;;;;;;;1.97;1.53;;;;;;;25.03;57.87;97320.00;5028136;28;20700;-35
2023/07/31 09:59:16;;;;;;;3.03;1.83;;;;;;;25.04;57.80;97316.59;5030238;28;20209;-36
2023/07/31 10:01:46;;;;;;;3.70;1.77;;;;;;;25.05;57.58;97312.31;5031940;28;20198;-30
2023/07/31 10:04:13;;;;;;;2.33;1.70;;;;;;;25.06;57.74;97308.88;5031336;28;20229;-38
2023/07/31 10:06:40;;;;;;;1.93;1.73;;;;;;;25.04;57.84;97308.88;5027885;28;20672;-37
2023/07/31 10:09:08;;;;;;;2.00;1.80;;;;;;;25.06;57.73;97306.31;5033090;28;20272;-35
2023/07/31 10:11:38;;;;;;;2.13;1.70;;;;;;;25.01;57.73;97297.69;5031645;28;20609;-28
2023/07/31 10:14:05;;;;;;;2.17;1.63;;;;;;;25.04;57.86;97301.16;4998680;28;20225;-30
2023/07/31 10:16:31;;;;;;;2.60;1.60;;;;;;;25.04;57.62;97301.16;5017161;28;20465;-33
2023/07/31 10:18:58;;;;;;;1.67;1.50;;;;;;;25.03;57.95;97298.56;5021363;28;20289;-37
2023/07/31 10:21:25;;;;;;;2.03;1.70;;;;;;;25.03;57.67;97302.00;5012251;28;20205;-31
2023/07/31 10:23:51;;;;;;;1.87;1.70;;;;;;;25.05;57.66;97302.88;5021043;28;20222;-35
2023/07/31 10:26:18;;;;;;;4.20;1.90;;;;;;;25.00;57.88;97291.69;5012575;28;20262;-32
2023/07/31 10:28:45;;;;;;;1.67;1.57;;;;;;;25.00;57.82;97281.41;5003821;28;20281;-36
2023/07/31 10:31:12;;;;;;;4.07;1.80;;;;;;;25.06;57.58;97290.88;5007255;28;20206;-30
2023/07/31 10:33:38;;;;;;;3.73;1.70;;;;;;;25.07;57.93;97295.19;5018348;28;20226;-31
2023/07/31 10:36:18;;;;;;;1.70;1.60;;;;;;;25.07;58.04;97285.75;5019015;28;20680;-30
2023/07/31 10:38:45;;;;;;;2.53;1.80;;;;;;;25.07;57.80;97284.88;5030168;28;20288;-36
2023/07/31 10:41:12;;;;;;;2.37;1.80;;;;;;;25.06;57.83;97276.34;5031930;28;20358;-36
2023/07/31 10:43:38;;;;;;;1.97;1.60;;;;;;;25.08;57.84;97273.78;5013686;28;20229;-31
2023/07/31 10:46:11;;;;;;;2.23;1.80;;;;;;;25.08;57.56;97259.19;5031843;28;20205;-32
2023/07/31 10:48:41;;;;;;;1.70;1.60;;;;;;;25.08;57.67;97253.22;5029500;28;20481;-32
2023/07/31 10:51:09;;;;;;;4.40;1.73;;;;;;;25.07;58.07;97267.75;5027692;28;20216;-38
2023/07/31 10:53:37;;;;;;;1.73;1.53;;;;;;;25.07;58.31;97257.47;5038805;28;20605;-33
2023/07/31 10:56:04;;;;;;;2.23;1.60;;;;;;;25.07;57.83;97244.63;5042029;28;20206;-32
2023/07/31 10:58:34;;;;;;;1.80;1.70;;;;;;;25.07;57.73;97239.47;5049944;28;20204;-45
2023/07/31 11:01:05;;;;;;;1.63;1.53;;;;;;;25.07;57.57;97249.75;5028000;28;20280;-44
2023/07/31 11:03:58;;;;;;;1.90;1.50;;;;;;;25.06;57.74;97253.19;5062958;22;20278;-27
2023/07/31 11:06:29;;;;;;;1.80;1.47;;;;;;;25.05;57.62;97236.00;5034820;28;20205;-27
2023/07/31 11:08:55;;;;;;;1.87;1.67;;;;;;;25.03;58.09;97227.44;5059908;28;20368;-26
2023/07/31 11:11:22;;;;;;;1.70;1.60;;;;;;;25.04;58.06;97239.44;5055378;28;20204;-27
2023/07/31 11:13:49;;;;;;;3.57;1.60;;;;;;;25.06;58.17;97236.88;5066471;28;20561;-27
2023/07/31 11:16:17;;;;;;;2.43;1.90;;;;;;;25.04;57.70;97233.44;5059844;28;20228;-25
2023/07/31 11:18:44;;;;;;;5.67;2.00;;;;;;;25.03;57.80;97235.16;5058495;28;20240;-26
2023/07/31 11:21:18;;;;;;;3.33;2.30;;;;;;;25.02;57.72;97212.84;5053848;28;20201;-27
2023/07/31 11:23:49;;;;;;;3.93;2.40;;;;;;;25.03;57.73;97211.16;5061696;28;20224;-26
2023/07/31 11:26:15;;;;;;;3.47;2.13;;;;;;;25.02;57.77;97212.00;5053059;28;20209;-27
2023/07/31 11:28:45;;;;;;;5.33;2.60;;;;;;;25.02;57.45;97215.41;5030032;28;20225;-27
2023/07/31 11:31:11;;;;;;;6.17;2.53;;;;;;;25.02;57.60;97209.44;5055548;28;20252;-27
2023/07/31 11:33:38;;;;;;;3.73;2.20;;;;;;;25.00;58.00;97211.13;5035198;28;20221;-27
2023/07/31 11:36:05;;;;;;;4.37;2.80;;;;;;;24.99;57.99;97205.09;5064478;28;20818;-27
2023/07/31 11:38:32;;;;;;;10.03;3.60;;;;;;;24.98;57.56;97200.81;5062722;28;20204;-26